Impacts TAF Board INFO
FOR SITUATIONAL AWARENESS. NOT TO BE USED FOR FLIGHT PLANNING PURPOSES.
IDs:

KGPT - Gulfport-Biloxi Intl, MS, US

Issued at 2327 UTC 24 Feb 2018
Updated at 0144 UTC 25 Feb 2018
Potential Impact None Slight Moderate High
Time0123Z 25/02Z 25/03Z 25/04Z 25/05Z 25/06Z 25/07Z 25/08Z 25/09Z 25/10Z 25/11Z 25/12Z 25/13Z 25/14Z>>
Type OBS PRVL PRVL PRVL PRVL PRVL PRVL PRVL PRVL PRVL
  [PRB30]  
PRVL
  [PRB30]  
PRVL PRVL PRVL
VIS 10 >6 >6 >6 >6 >6 >6 >6 >6 >6
  [4]  
>6
  [4]  
3 3 3
CIG 29 100 100 100 100 60 60 20 20 15
  [15]  
15
  [15]  
15 15 15
Cover BKN BKN BKN BKN BKN BKN BKN BKN BKN BKN
  [BKN]  
BKN
  [BKN]  
BKN BKN BKN
FltCat MVFR VFR VFR VFR VFR VFR VFR MVFR MVFR MVFR
  [MVFR]  
MVFR
  [MVFR]  
MVFR MVFR MVFR
WX -- -- -- -- -- VCSH VCSH VCSH VCSH --
  [SHRA]  
--
  [SHRA]  
SHRA SHRA SHRA
WDir 180 170 170 170 170 180 180 180 180 190
[190]
190
[190]
190 190 190
WSpd 7 10 10 10 10 9 9 8 8 7
  [7]  
7
  [7]  
7 7 7
WGst -- -- -- -- -- -- -- -- -- --
  [--]  
--
  [--]  
-- -- --

Raw TAF
KGPT 242327Z 2500/2524 17010KT P6SM SCT025 BKN100
  FM250600 18009KT P6SM VCSH SCT010 BKN060
  FM250800 18008KT P6SM VCSH SCT010 BKN020
  FM251000 19007KT P6SM BKN015 BKN025
  PROB30 2510/2512 4SM SHRA BKN015
  FM251200 19007KT 3SM SHRA BKN015
  FM251500 19007KT 3SM SHRA SCT015 BKN025


Raw METAR
KGPT 250123Z 18007KT 10SM SCT023 BKN029 23/22 A3003 RMK AO2 T02330217
KGPT 250053Z 18006KT 10SM CLR 23/22 A3002 RMK AO2 SLP165 T02330217
KGPT 242353Z 18007KT 10SM CLR 24/21 A3002 RMK AO2 SLP164 T02390211 10267 20239 55000
KGPT 242253Z 17008KT 10SM CLR 24/21 A3001 RMK AO2 SLP161 T02440211

METAR Board
Radar Display
Forecast Discussion

FOR SITUATIONAL AWARENESS. NOT TO BE USED FOR FLIGHT PLANNING PURPOSES.